Time;durP1;ratioP1;P1;durP2;ratioP2;P2;SDS_P1;SDS_P2;PMS_P1;PMS_P2;Temp;Humidity;BMP_temperature;BMP_pressure;BME280_temperature;BME280_humidity;BME280_pressure;Samples;Min_cycle;Max_cycle;Signal;HPM_P1;HPM_P2
2021/01/26 00:01:55;;;;;;;;;;;;;;;21.28;28.30;96855.22;4981113;28;939;-74
2021/01/26 00:04:21;;;;;;;;;;;;;;;21.48;27.84;96842.69;4981267;28;839;-74
2021/01/26 00:06:46;;;;;;;;;;;;;;;21.87;27.80;96862.78;4981003;28;1898;-73
2021/01/26 00:09:12;;;;;;;;;;;;;;;21.89;27.40;96857.44;4981277;28;674;-74
2021/01/26 00:11:37;;;;;;;;;;;;;;;21.90;27.63;96856.16;4981340;28;580;-74
2021/01/26 00:14:03;;;;;;;;;;;;;;;21.98;27.53;96854.59;4980834;28;1067;-74
2021/01/26 00:16:28;;;;;;;;;;;;;;;21.58;27.74;96842.19;4980871;28;852;-74
2021/01/26 00:18:54;;;;;;;;;;;;;;;21.30;28.04;96847.09;4981497;28;863;-73
2021/01/26 00:21:19;;;;;;;;;;;;;;;21.35;28.56;96847.69;4981231;28;646;-74
2021/01/26 00:23:44;;;;;;;;;;;;;;;21.99;27.63;96850.47;4981141;28;595;-74
2021/01/26 00:26:10;;;;;;;;;;;;;;;21.89;27.62;96843.25;4981027;28;1968;-74
2021/01/26 00:28:35;;;;;;;;;;;;;;;21.90;27.53;96834.28;4981278;28;928;-74
2021/01/26 00:31:01;;;;;;;;;;;;;;;21.84;27.41;96831.31;4981498;28;952;-74
2021/01/26 00:33:26;;;;;;;;;;;;;;;21.37;28.09;96834.66;4984967;28;847;-73
2021/01/26 00:35:52;;;;;;;;;;;;;;;21.31;27.84;96820.38;4984929;28;642;-74
2021/01/26 00:38:18;;;;;;;;;;;;;;;21.64;28.06;96813.25;4984841;28;647;-74
2021/01/26 00:40:43;;;;;;;;;;;;;;;21.91;27.58;96810.38;4984499;28;1044;-74
2021/01/26 00:43:09;;;;;;;;;;;;;;;21.74;27.65;96807.09;4984642;28;869;-74
2021/01/26 00:45:34;;;;;;;;;;;;;;;21.82;27.70;96799.88;4984661;28;1970;-74
2021/01/26 00:48:00;;;;;;;;;;;;;;;21.89;27.53;96784.56;4984717;28;670;-74
2021/01/26 00:50:27;;;;;;;;;;;;;;;20.98;28.54;96791.84;4968035;28;1074;-74
2021/01/26 00:52:52;;;;;;;;;;;;;;;21.38;28.00;96785.28;4984722;28;687;-73
2021/01/26 00:55:28;;;;;;;;;;;;;;;21.51;28.03;96791.59;4984086;28;1279;-74
2021/01/26 00:57:53;;;;;;;;;;;;;;;21.79;27.63;96780.19;4968059;28;1168;-74
2021/01/26 01:00:27;;;;;;;;;;;;;;;21.68;28.07;96785.56;4967431;28;818;-74
2021/01/26 01:02:55;;;;;;;;;;;;;;;21.74;27.87;96778.78;4983918;28;1641;-74
2021/01/26 01:05:21;;;;;;;;;;;;;;;21.55;27.91;96780.06;4984559;28;1976;-73
2021/01/26 01:07:46;;;;;;;;;;;;;;;21.30;28.14;96773.53;4984212;28;1149;-74
2021/01/26 01:10:12;;;;;;;;;;;;;;;20.96;28.54;96779.47;4984434;28;679;-74
2021/01/26 01:12:38;;;;;;;;;;;;;;;21.84;27.65;96774.69;4983979;28;1024;-74
2021/01/26 01:15:05;;;;;;;;;;;;;;;22.10;27.48;96777.09;4983925;28;961;-73
2021/01/26 01:17:30;;;;;;;;;;;;;;;21.92;27.60;96774.34;4984041;28;973;-73
2021/01/26 01:19:55;;;;;;;;;;;;;;;21.98;27.60;96763.94;4984145;28;677;-74
2021/01/26 01:22:21;;;;;;;;;;;;;;;21.41;28.27;96770.22;4984264;28;626;-74
2021/01/26 01:24:46;;;;;;;;;;;;;;;21.32;27.86;96770.22;4984018;28;595;-74
2021/01/26 01:27:12;;;;;;;;;;;;;;;21.14;28.35;96759.69;4983631;28;1985;-74
2021/01/26 01:29:37;;;;;;;;;;;;;;;21.58;28.15;96762.94;4983635;28;809;-74
2021/01/26 01:32:03;;;;;;;;;;;;;;;21.97;27.39;96760.34;4983878;28;1054;-73
2021/01/26 01:34:28;;;;;;;;;;;;;;;21.92;27.67;96754.53;4983861;28;706;-74
2021/01/26 01:36:54;;;;;;;;;;;;;;;21.94;27.75;96738.63;4984113;28;600;-73
2021/01/26 01:39:19;;;;;;;;;;;;;;;21.71;27.80;96734.47;4983723;28;730;-74
2021/01/26 01:41:45;;;;;;;;;;;;;;;21.25;28.17;96726.03;4983576;28;1005;-74
2021/01/26 01:44:10;;;;;;;;;;;;;;;21.44;28.18;96720.34;4982565;28;895;-74
2021/01/26 01:46:37;;;;;;;;;;;;;;;21.75;28.09;96720.13;4983523;28;1976;-73
2021/01/26 01:49:02;;;;;;;;;;;;;;;21.92;27.62;96715.66;4966860;28;675;-73
2021/01/26 01:51:28;;;;;;;;;;;;;;;22.05;27.58;96712.63;4983532;28;623;-73
2021/01/26 01:54:01;;;;;;;;;;;;;;;22.04;27.48;96705.38;4983641;28;727;-74
2021/01/26 01:56:31;;;;;;;;;;;;;;;21.92;27.15;96692.22;4983550;28;872;-74
2021/01/26 01:58:58;;;;;;;;;;;;;;;21.09;28.67;96692.44;4966383;28;857;-73
2021/01/26 02:01:25;;;;;;;;;;;;;;;21.14;28.28;96688.97;4966751;28;683;-74
2021/01/26 02:03:51;;;;;;;;;;;;;;;21.74;28.09;96681.75;4966589;28;608;-74
2021/01/26 02:06:16;;;;;;;;;;;;;;;21.93;27.62;96676.81;4983113;28;2073;-74
2021/01/26 02:08:44;;;;;;;;;;;;;;;21.96;27.32;96670.94;4983419;28;702;-74
2021/01/26 02:11:10;;;;;;;;;;;;;;;21.88;27.77;96683.13;4966223;28;945;-74
2021/01/26 02:13:35;;;;;;;;;;;;;;;21.59;28.07;96681.63;4983258;28;984;-73
2021/01/26 02:16:01;;;;;;;;;;;;;;;21.32;28.06;96674.81;4983070;28;938;-74
2021/01/26 02:18:33;;;;;;;;;;;;;;;21.57;28.21;96672.84;4966641;28;687;-73
2021/01/26 02:21:17;;;;;;;;;;;;;;;21.93;27.54;96659.81;4982738;28;1157;-72
2021/01/26 02:23:42;;;;;;;;;;;;;;;22.01;27.45;96666.69;4982981;28;734;-72
2021/01/26 02:26:30;;;;;;;;;;;;;;;21.91;27.87;96673.66;4982471;28;1903;-74
2021/01/26 02:28:56;;;;;;;;;;;;;;;21.40;28.18;96668.81;4966086;28;883;-72
2021/01/26 02:31:40;;;;;;;;;;;;;;;20.93;28.82;96668.06;4983081;28;664;-73
2021/01/26 02:34:35;;;;;;;;;;;;;;;21.35;28.28;96660.94;4982730;28;712;-73
2021/01/26 02:37:14;;;;;;;;;;;;;;;21.79;27.85;96667.72;4909278;28;1187;-73
2021/01/26 02:39:49;;;;;;;;;;;;;;;22.18;27.49;96665.06;4948625;28;1142;-74
2021/01/26 02:42:32;;;;;;;;;;;;;;;22.23;27.31;96672.13;4953535;28;1228;-74
2021/01/26 02:45:15;;;;;;;;;;;;;;;21.73;27.72;96652.66;4955351;28;1245;-73
2021/01/26 02:47:40;;;;;;;;;;;;;;;21.36;28.49;96662.53;4948905;28;1225;-72
2021/01/26 02:50:06;;;;;;;;;;;;;;;21.43;28.39;96667.84;4971789;28;1167;-73
2021/01/26 02:52:33;;;;;;;;;;;;;;;21.73;28.15;96663.97;4972169;28;1188;-73
2021/01/26 02:54:59;;;;;;;;;;;;;;;21.94;27.78;96664.22;4953771;28;1299;-73
2021/01/26 02:57:29;;;;;;;;;;;;;;;21.82;27.92;96666.78;4972053;28;1129;-73
2021/01/26 03:00:09;;;;;;;;;;;;;;;21.72;27.85;96661.63;4952818;28;1193;-73
2021/01/26 03:02:38;;;;;;;;;;;;;;;21.50;28.11;96651.34;4953442;28;1165;-74
2021/01/26 03:05:06;;;;;;;;;;;;;;;21.14;28.60;96655.03;4953107;28;1201;-72
2021/01/26 03:07:33;;;;;;;;;;;;;;;21.52;28.57;96648.03;4948054;28;1970;-74
2021/01/26 03:10:00;;;;;;;;;;;;;;;22.09;27.37;96657.34;4949228;28;1107;-73
2021/01/26 03:12:35;;;;;;;;;;;;;;;21.96;27.51;96658.84;4971018;28;1219;-72
2021/01/26 03:15:17;;;;;;;;;;;;;;;21.83;27.77;96662.69;4968406;28;1204;-72
2021/01/26 03:17:47;;;;;;;;;;;;;;;21.53;27.98;96650.38;4952381;28;1188;-72
2021/01/26 03:20:19;;;;;;;;;;;;;;;21.15;28.49;96655.81;4965197;28;692;-74
2021/01/26 03:22:49;;;;;;;;;;;;;;;21.58;28.38;96651.78;4965254;28;687;-73
2021/01/26 03:25:14;;;;;;;;;;;;;;;22.13;27.52;96642.28;4981828;28;660;-74
2021/01/26 03:27:41;;;;;;;;;;;;;;;21.95;27.78;96643.09;4965155;28;1973;-74
2021/01/26 03:30:07;;;;;;;;;;;;;;;22.02;27.78;96639.91;4981392;28;856;-74
2021/01/26 03:32:33;;;;;;;;;;;;;;;22.14;27.51;96641.78;4981725;28;855;-74
2021/01/26 03:34:58;;;;;;;;;;;;;;;21.77;27.88;96646.84;4965038;28;647;-74
2021/01/26 03:37:24;;;;;;;;;;;;;;;21.31;28.43;96639.28;4982023;28;691;-74
2021/01/26 03:39:50;;;;;;;;;;;;;;;21.27;28.23;96637.84;4981621;28;634;-73
2021/01/26 03:42:16;;;;;;;;;;;;;;;21.47;28.49;96634.53;4964926;28;993;-74
2021/01/26 03:44:41;;;;;;;;;;;;;;;21.87;27.91;96639.09;4964790;28;859;-73
2021/01/26 03:47:12;;;;;;;;;;;;;;;21.84;27.79;96635.94;4981493;28;1979;-74
2021/01/26 03:49:44;;;;;;;;;;;;;;;21.83;28.03;96644.91;4964617;28;777;-74
2021/01/26 03:52:10;;;;;;;;;;;;;;;21.37;28.52;96641.47;4981599;28;631;-73
2021/01/26 03:54:43;;;;;;;;;;;;;;;21.36;28.54;96645.56;4981096;28;911;-74
2021/01/26 03:57:34;;;;;;;;;;;;;;;21.45;28.53;96643.50;4964326;28;909;-73
2021/01/26 04:00:09;;;;;;;;;;;;;;;21.74;28.14;96647.78;4977581;28;1036;-74
2021/01/26 04:02:50;;;;;;;;;;;;;;;21.89;28.01;96642.19;4981265;28;686;-73
2021/01/26 04:05:22;;;;;;;;;;;;;;;21.99;27.84;96640.91;4981262;28;599;-73
2021/01/26 04:07:59;;;;;;;;;;;;;;;21.48;28.08;96639.69;4980815;28;1203;-74
2021/01/26 04:10:25;;;;;;;;;;;;;;;21.09;28.73;96638.69;4964464;28;1013;-73
2021/01/26 04:12:55;;;;;;;;;;;;;;;21.54;28.45;96646.28;4981200;28;957;-74
2021/01/26 04:15:25;;;;;;;;;;;;;;;22.11;27.62;96642.72;4981159;28;695;-73
2021/01/26 04:17:51;;;;;;;;;;;;;;;21.98;27.64;96647.81;4964483;28;623;-74
2021/01/26 04:20:17;;;;;;;;;;;;;;;21.82;28.13;96632.81;4964255;28;768;-74
2021/01/26 04:22:42;;;;;;;;;;;;;;;21.50;28.17;96633.56;4964557;28;671;-73
2021/01/26 04:25:28;;;;;;;;;;;;;;;21.34;28.38;96643.19;4980763;28;871;-73
2021/01/26 04:27:53;;;;;;;;;;;;;;;21.33;28.28;96642.41;4980766;28;958;-74
2021/01/26 04:30:19;;;;;;;;;;;;;;;21.69;28.11;96652.03;4981199;28;619;-74
2021/01/26 04:32:44;;;;;;;;;;;;;;;21.77;28.28;96650.44;4981060;28;687;-74
2021/01/26 04:35:10;;;;;;;;;;;;;;;22.04;27.58;96643.84;4964561;28;798;-73
2021/01/26 04:37:35;;;;;;;;;;;;;;;21.84;27.85;96658.56;4980964;28;676;-73
2021/01/26 04:40:02;;;;;;;;;;;;;;;21.45;28.21;96645.50;4980711;28;1053;-74
2021/01/26 04:42:28;;;;;;;;;;;;;;;21.16;28.69;96638.34;4964176;28;940;-74
2021/01/26 04:44:53;;;;;;;;;;;;;;;21.33;28.76;96636.75;4980923;28;767;-74
2021/01/26 04:47:39;;;;;;;;;;;;;;;21.85;27.90;96631.81;4980844;28;1977;-73
2021/01/26 04:50:10;;;;;;;;;;;;;;;21.74;28.38;96640.06;4941580;28;1025;-74
2021/01/26 04:52:36;;;;;;;;;;;;;;;21.77;28.32;96633.47;4980875;28;746;-73
2021/01/26 04:55:11;;;;;;;;;;;;;;;21.22;29.02;96653.41;4980827;28;824;-74
2021/01/26 04:57:53;;;;;;;;;;;;;;;21.05;29.04;96655.03;4964125;28;880;-73
2021/01/26 05:00:31;;;;;;;;;;;;;;;21.56;28.50;96665.63;4964290;28;620;-74
2021/01/26 05:02:57;;;;;;;;;;;;;;;21.93;28.19;96671.13;4980982;28;701;-74
2021/01/26 05:05:22;;;;;;;;;;;;;;;21.81;28.02;96670.06;4980728;28;1906;-75
2021/01/26 05:07:48;;;;;;;;;;;;;;;21.99;27.83;96664.34;4963554;28;1098;-74
2021/01/26 05:10:16;;;;;;;;;;;;;;;21.53;28.33;96669.41;4980448;28;910;-74
2021/01/26 05:12:42;;;;;;;;;;;;;;;21.38;28.46;96671.34;4963932;28;859;-74
2021/01/26 05:15:08;;;;;;;;;;;;;;;21.27;28.90;96672.59;4980796;28;718;-74
2021/01/26 05:17:44;;;;;;;;;;;;;;;21.91;28.08;96679.31;4964050;28;596;-74
2021/01/26 05:20:10;;;;;;;;;;;;;;;21.96;27.78;96675.81;4967584;28;566;-74
2021/01/26 05:22:54;;;;;;;;;;;;;;;22.26;27.48;96677.59;4983799;28;974;-74
2021/01/26 05:25:21;;;;;;;;;;;;;;;21.84;27.87;96675.56;4983695;28;1969;-73
2021/01/26 05:27:48;;;;;;;;;;;;;;;21.52;28.06;96682.00;4983929;28;593;-73
2021/01/26 05:30:28;;;;;;;;;;;;;;;21.09;28.78;96689.59;4984228;28;648;-73
2021/01/26 05:32:54;;;;;;;;;;;;;;;21.58;28.51;96705.56;4983996;28;718;-74
2021/01/26 05:35:19;;;;;;;;;;;;;;;21.79;28.37;96701.69;4984180;28;631;-74
2021/01/26 05:37:46;;;;;;;;;;;;;;;21.71;28.42;96694.81;4966781;28;922;-74
2021/01/26 05:40:13;;;;;;;;;;;;;;;21.93;27.85;96697.41;4966803;28;916;-74
2021/01/26 05:42:39;;;;;;;;;;;;;;;21.50;28.25;96695.81;4967305;28;965;-73
2021/01/26 05:45:09;;;;;;;;;;;;;;;21.25;28.59;96691.31;4983679;28;668;-74
2021/01/26 05:47:35;;;;;;;;;;;;;;;21.39;28.87;96701.19;4966818;28;1968;-74
2021/01/26 05:50:01;;;;;;;;;;;;;;;21.73;28.34;96697.94;4966604;28;899;-73
2021/01/26 05:52:36;;;;;;;;;;;;;;;22.01;27.82;96695.78;4983363;28;880;-74
2021/01/26 05:55:03;;;;;;;;;;;;;;;22.23;27.55;96695.56;4983517;28;1041;-73
2021/01/26 05:57:30;;;;;;;;;;;;;;;21.73;28.19;96694.34;4983543;28;655;-74
2021/01/26 06:00:15;;;;;;;;;;;;;;;21.20;28.67;96706.09;4967066;28;627;-74
2021/01/26 06:02:41;;;;;;;;;;;;;;;21.40;28.32;96697.91;4983430;28;552;-73
2021/01/26 06:05:09;;;;;;;;;;;;;;;21.84;28.37;96698.22;4983054;28;1111;-72
2021/01/26 06:07:35;;;;;;;;;;;;;;;21.77;28.23;96698.56;4983230;28;1902;-72
2021/01/26 06:10:01;;;;;;;;;;;;;;;22.12;27.64;96691.66;4983211;28;843;-71
2021/01/26 06:12:27;;;;;;;;;;;;;;;22.03;27.77;96698.16;4966412;28;1136;-73
2021/01/26 06:14:55;;;;;;;;;;;;;;;21.47;28.57;96691.91;4983250;28;649;-72
2021/01/26 06:17:30;;;;;;;;;;;;;;;21.53;28.10;96703.38;4983142;28;694;-73
2021/01/26 06:20:05;;;;;;;;;;;;;;;21.42;28.52;96700.25;4981677;28;967;-71
2021/01/26 06:22:31;;;;;;;;;;;;;;;21.88;28.36;96697.28;4966754;28;894;-71
2021/01/26 06:24:57;;;;;;;;;;;;;;;21.85;27.97;96705.44;4946438;29;1000;-73
2021/01/26 06:27:29;;;;;;;;;;;;;;;22.08;28.08;96694.66;4946659;29;1980;-72
2021/01/26 06:30:15;;;;;;;;;;;;;;;21.81;27.86;96704.84;4946375;29;832;-73
2021/01/26 06:32:49;;;;;;;;;;;;;;;21.46;28.26;96690.34;4946771;29;901;-73
2021/01/26 06:35:27;;;;;;;;;;;;;;;21.50;28.46;96695.81;4962798;29;832;-71
2021/01/26 06:37:53;;;;;;;;;;;;;;;21.87;28.34;96695.72;4963115;29;864;-74
2021/01/26 06:40:30;;;;;;;;;;;;;;;22.16;27.78;96690.22;4963121;29;670;-73
2021/01/26 06:43:11;;;;;;;;;;;;;;;21.89;28.26;96687.50;4963034;29;675;-73
2021/01/26 06:45:43;;;;;;;;;;;;;;;21.73;28.34;96691.50;4962875;29;1985;-73
2021/01/26 06:48:08;;;;;;;;;;;;;;;21.45;28.43;96693.63;4962836;29;678;-74
2021/01/26 06:50:44;;;;;;;;;;;;;;;21.18;28.68;96691.63;4962687;29;940;-73
2021/01/26 06:53:18;;;;;;;;;;;;;;;21.57;28.86;96689.84;4962492;29;907;-70
2021/01/26 06:55:53;;;;;;;;;;;;;;;21.82;28.56;96691.47;4962713;29;715;-71
2021/01/26 06:58:18;;;;;;;;;;;;;;;21.98;28.19;96695.97;4962647;29;673;-73
2021/01/26 07:00:46;;;;;;;;;;;;;;;21.75;28.27;96706.75;4962760;29;695;-72
2021/01/26 07:03:50;;;;;;;;;;;;;;;21.33;28.76;96695.38;4962747;29;676;-71
2021/01/26 07:06:34;;;;;;;;;;;;;;;21.29;28.68;96689.84;4922497;29;1973;-72
2021/01/26 07:09:18;;;;;;;;;;;;;;;21.88;28.41;96691.63;4923111;29;947;-71
2021/01/26 07:11:56;;;;;;;;;;;;;;;21.98;28.33;96701.63;4951256;29;901;-71
2021/01/26 07:14:40;;;;;;;;;;;;;;;22.12;27.74;96703.78;4962143;29;851;-71
2021/01/26 07:17:06;;;;;;;;;;;;;;;21.64;28.24;96706.47;4962514;29;688;-72
2021/01/26 07:19:41;;;;;;;;;;;;;;;21.43;28.66;96696.94;4945726;29;743;-71
2021/01/26 07:22:09;;;;;;;;;;;;;;;21.37;29.19;96706.56;4962153;29;976;-71
2021/01/26 07:24:38;;;;;;;;;;;;;;;21.77;28.46;96704.25;4962293;29;934;-70
2021/01/26 07:27:03;;;;;;;;;;;;;;;21.98;28.20;96710.13;4962430;29;1973;-70
2021/01/26 07:29:32;;;;;;;;;;;;;;;22.02;27.99;96707.88;4962134;29;723;-72
2021/01/26 07:32:03;;;;;;;;;;;;;;;21.61;28.61;96710.28;4962293;29;596;-71
2021/01/26 07:34:31;;;;;;;;;;;;;;;21.25;28.93;96709.06;4945338;29;964;-71
2021/01/26 07:36:58;;;;;;;;;;;;;;;21.54;28.76;96713.41;4961747;29;873;-71
2021/01/26 07:39:23;;;;;;;;;;;;;;;22.07;27.97;96704.41;4945330;29;986;-70
2021/01/26 07:42:01;;;;;;;;;;;;;;;21.96;27.94;96715.47;4961598;28;604;-70
2021/01/26 07:44:39;;;;;;;;;;;;;;;21.99;27.92;96708.88;4961641;29;1136;-71
2021/01/26 07:47:23;;;;;;;;;;;;;;;21.63;28.16;96707.75;4945913;29;1970;-70
2021/01/26 07:49:56;;;;;;;;;;;;;;;21.41;28.48;96710.00;4961885;29;879;-70
2021/01/26 07:52:21;;;;;;;;;;;;;;;21.69;28.67;96714.31;4962277;29;811;-72
2021/01/26 07:55:01;;;;;;;;;;;;;;;22.04;27.88;96708.22;4945405;29;664;-71
2021/01/26 07:57:28;;;;;;;;;;;;;;;22.09;27.94;96716.84;4961920;29;642;-71
2021/01/26 07:59:54;;;;;;;;;;;;;;;21.89;28.34;96727.16;4961734;29;663;-71
2021/01/26 08:02:46;;;;;;;;;;;;;;;21.57;28.61;96718.13;4961476;29;1014;-71
2021/01/26 08:05:15;;;;;;;;;;;;;;;21.30;28.55;96721.81;4958458;29;2195;-71
2021/01/26 08:07:41;;;;;;;;;;;;;;;21.62;28.56;96713.88;4961565;29;1906;-71
2021/01/26 08:10:06;;;;;;;;;;;;;;;21.95;28.41;96720.34;4945138;29;592;-71
2021/01/26 08:12:32;;;;;;;;;;;;;;;22.06;28.06;96714.16;4945017;29;1223;-72
2021/01/26 08:15:16;;;;;;;;;;;;;;;21.92;28.14;96715.66;4961857;29;654;-70
2021/01/26 08:17:42;;;;;;;;;;;;;;;21.68;28.53;96712.75;4961288;29;904;-71
2021/01/26 08:20:08;;;;;;;;;;;;;;;21.37;28.63;96703.72;4944884;29;980;-71
2021/01/26 08:22:34;;;;;;;;;;;;;;;21.38;28.59;96699.63;4961761;29;592;-71
2021/01/26 08:25:01;;;;;;;;;;;;;;;21.76;28.54;96707.53;4945008;29;687;-72
2021/01/26 08:27:26;;;;;;;;;;;;;;;22.04;27.92;96711.03;4944427;29;1991;-72
2021/01/26 08:29:53;;;;;;;;;;;;;;;21.94;28.34;96706.69;4961934;29;596;-73
2021/01/26 08:32:24;;;;;;;;;;;;;;;21.57;28.73;96707.59;4961781;29;604;-72
2021/01/26 08:34:56;;;;;;;;;;;;;;;21.33;28.93;96710.31;4961215;29;958;-72
2021/01/26 08:37:24;;;;;;;;;;;;;;;21.18;29.27;96720.69;4961024;29;897;-72
2021/01/26 08:39:49;;;;;;;;;;;;;;;21.81;28.29;96726.69;4961774;29;934;-71
2021/01/26 08:42:33;;;;;;;;;;;;;;;21.86;28.24;96717.56;4961487;29;652;-70
2021/01/26 08:44:59;;;;;;;;;;;;;;;22.04;27.90;96716.72;4961541;29;688;-71
2021/01/26 08:47:44;;;;;;;;;;;;;;;21.70;28.26;96727.22;4960853;29;1894;-72
2021/01/26 08:50:11;;;;;;;;;;;;;;;21.53;28.56;96728.84;4960692;29;2099;-71
2021/01/26 08:52:37;;;;;;;;;;;;;;;21.31;28.56;96729.03;4962992;28;668;-71
2021/01/26 08:55:02;;;;;;;;;;;;;;;21.56;29.01;96727.91;4965416;29;668;-73
2021/01/26 08:57:28;;;;;;;;;;;;;;;22.20;27.99;96719.19;4948506;29;1919;-73
2021/01/26 08:59:57;;;;;;;;;;;;;;;22.01;28.13;96714.81;4964852;29;668;-73
2021/01/26 09:02:32;;;;;;;;;;;;;;;22.09;27.96;96719.69;4946793;29;1012;-72
2021/01/26 09:04:58;;;;;;;;;;;;;;;21.54;28.81;96722.69;4964171;29;917;-72
2021/01/26 09:07:47;;;;;;;;;;;;;;;21.26;28.78;96726.81;4964106;29;1930;-71
2021/01/26 09:10:32;;;;;;;;;;;;;;;21.63;28.71;96738.09;4957064;29;1406;-71
2021/01/26 09:13:15;;;;;;;;;;;;;;;22.04;28.27;96728.03;4964793;29;672;-73
2021/01/26 09:15:49;;;;;;;;;;;;;;;22.08;27.93;96734.31;4964738;29;644;-72
2021/01/26 09:18:15;;;;;;;;;;;;;;;21.93;28.18;96739.09;4964080;29;837;-72
2021/01/26 09:20:41;;;;;;;;;;;;;;;21.63;28.77;96732.44;4947801;29;952;-70
2021/01/26 09:23:06;;;;;;;;;;;;;;;21.42;28.71;96722.88;4964670;29;791;-73
2021/01/26 09:25:34;;;;;;;;;;;;;;;21.41;28.68;96715.66;4964791;29;1922;-71
2021/01/26 09:28:02;;;;;;;;;;;;;;;21.45;29.12;96710.59;4947534;29;702;-72
2021/01/26 09:30:28;;;;;;;;;;;;;;;21.91;28.41;96704.81;4964413;29;703;-73
2021/01/26 09:32:57;;;;;;;;;;;;;;;22.26;27.93;96703.09;4964449;29;659;-72
2021/01/26 09:35:27;;;;;;;;;;;;;;;22.04;28.14;96688.38;4964339;29;891;-70
2021/01/26 09:38:03;;;;;;;;;;;;;;;21.38;28.76;96691.13;4946677;29;968;-74
2021/01/26 09:40:28;;;;;;;;;;;;;;;21.12;29.05;96688.63;4964103;29;933;-74
2021/01/26 09:43:07;;;;;;;;;;;;;;;21.59;28.59;96684.47;4964472;29;650;-75
2021/01/26 09:45:33;;;;;;;;;;;;;;;21.92;28.54;96687.34;4946918;29;1902;-71
2021/01/26 09:47:58;;;;;;;;;;;;;;;21.91;28.46;96684.97;4964136;29;651;-73
2021/01/26 09:50:28;;;;;;;;;;;;;;;21.85;28.63;96694.13;4964031;29;671;-73
2021/01/26 09:52:55;;;;;;;;;;;;;;;22.01;27.90;96692.16;4947962;29;699;-72
2021/01/26 09:55:20;;;;;;;;;;;;;;;21.85;28.29;96693.34;4964020;29;611;-72
2021/01/26 09:57:46;;;;;;;;;;;;;;;21.45;28.83;96682.31;4963778;29;1020;-73
2021/01/26 10:00:12;;;;;;;;;;;;;;;21.87;28.37;96681.56;4963680;29;954;-73
2021/01/26 10:02:38;;;;;;;;;;;;;;;21.88;28.29;96680.28;4946463;29;964;-72
2021/01/26 10:05:07;;;;;;;;;;;;;;;21.95;28.41;96683.53;4946331;29;879;-71
2021/01/26 10:07:32;;;;;;;;;;;;;;;21.79;28.26;96673.38;4944866;29;1990;-73
2021/01/26 10:10:16;;;;;;;;;;;;;;;21.56;28.42;96679.78;4963449;28;1188;-72
2021/01/26 10:12:45;;;;;;;;;;;;;;;21.30;28.85;96671.69;4963400;29;893;-72
2021/01/26 10:15:10;;;;;;;;;;;;;;;21.65;28.98;96676.91;4963392;29;968;-71
2021/01/26 10:17:43;;;;;;;;;;;;;;;22.11;27.88;96671.06;4963342;29;698;-72
2021/01/26 10:20:09;;;;;;;;;;;;;;;22.01;28.45;96669.50;4946894;29;822;-71
2021/01/26 10:22:34;;;;;;;;;;;;;;;22.06;28.10;96671.69;4963422;29;631;-70
2021/01/26 10:25:10;;;;;;;;;;;;;;;21.79;28.36;96673.38;4963634;29;711;-71
2021/01/26 10:27:36;;;;;;;;;;;;;;;21.35;28.82;96667.41;4962879;29;1904;-72
2021/01/26 10:30:11;;;;;;;;;;;;;;;21.30;29.22;96660.34;4962926;29;879;-71
2021/01/26 10:32:44;;;;;;;;;;;;;;;21.77;28.46;96667.44;4963253;29;719;-72
2021/01/26 10:35:31;;;;;;;;;;;;;;;21.98;28.25;96656.31;4963225;29;655;-72
2021/01/26 10:37:57;;;;;;;;;;;;;;;22.11;27.88;96659.72;4963344;29;639;-70
2021/01/26 10:40:30;;;;;;;;;;;;;;;21.67;28.62;96660.25;4946576;29;682;-72
2021/01/26 10:42:58;;;;;;;;;;;;;;;21.49;28.56;96661.06;4963079;29;624;-70
2021/01/26 10:45:36;;;;;;;;;;;;;;;20.57;30.25;96657.56;4946417;29;588;-71
2021/01/26 10:48:17;;;;;;;;;;;;;;;21.87;28.55;96662.50;4962594;29;803;-72
2021/01/26 10:50:43;;;;;;;;;;;;;;;22.06;28.06;96663.19;4962642;29;831;-72
2021/01/26 10:53:08;;;;;;;;;;;;;;;21.98;28.37;96662.00;4946366;29;684;-72
2021/01/26 10:55:33;;;;;;;;;;;;;;;21.63;28.57;96665.28;4962833;29;604;-73
2021/01/26 10:57:59;;;;;;;;;;;;;;;21.70;28.50;96661.31;4962832;29;639;-74
2021/01/26 11:00:28;;;;;;;;;;;;;;;21.55;28.66;96669.69;4962894;29;597;-70
2021/01/26 11:02:54;;;;;;;;;;;;;;;21.96;28.35;96675.81;4962700;29;905;-72
2021/01/26 11:05:19;;;;;;;;;;;;;;;22.31;27.71;96674.09;4962387;29;816;-71
2021/01/26 11:07:45;;;;;;;;;;;;;;;21.99;28.33;96663.56;4962400;29;1983;-73
2021/01/26 11:10:10;;;;;;;;;;;;;;;21.88;28.60;96657.63;4962844;29;631;-74
2021/01/26 11:12:39;;;;;;;;;;;;;;;21.76;28.64;96656.56;4962546;29;755;-73
2021/01/26 11:15:05;;;;;;;;;;;;;;;21.53;28.79;96658.06;4962094;28;668;-71
2021/01/26 11:17:31;;;;;;;;;;;;;;;21.50;28.48;96661.84;4961594;29;940;-73
2021/01/26 11:19:56;;;;;;;;;;;;;;;21.82;28.70;96654.66;4961777;29;904;-73
2021/01/26 11:22:22;;;;;;;;;;;;;;;22.04;28.28;96651.56;4962758;29;961;-73
2021/01/26 11:24:47;;;;;;;;;;;;;;;21.87;28.55;96645.53;4962285;29;627;-72
2021/01/26 11:27:12;;;;;;;;;;;;;;;21.91;27.93;96653.81;4962283;29;1914;-73
2021/01/26 11:29:38;;;;;;;;;;;;;;;21.23;29.26;96652.16;4961981;29;671;-72
2021/01/26 11:32:04;;;;;;;;;;;;;;;21.20;29.02;96644.63;4962445;29;637;-73
2021/01/26 11:34:29;;;;;;;;;;;;;;;21.21;29.01;96657.50;4962209;29;888;-71
2021/01/26 11:36:55;;;;;;;;;;;;;;;21.63;29.20;96648.28;4945216;29;859;-73
2021/01/26 11:39:20;;;;;;;;;;;;;;;21.89;28.26;96647.88;4961784;29;923;-71
2021/01/26 11:41:46;;;;;;;;;;;;;;;22.17;28.19;96645.69;4962149;29;608;-72
2021/01/26 11:44:11;;;;;;;;;;;;;;;21.82;28.60;96638.47;4962165;29;655;-72
2021/01/26 11:46:36;;;;;;;;;;;;;;;21.45;28.87;96642.69;4961957;29;1969;-71
2021/01/26 11:49:02;;;;;;;;;;;;;;;21.22;29.09;96639.28;4961519;29;886;-71
2021/01/26 11:51:28;;;;;;;;;;;;;;;21.82;28.67;96644.13;4962020;29;876;-72
2021/01/26 11:53:53;;;;;;;;;;;;;;;21.72;28.65;96636.94;4962048;29;824;-72
2021/01/26 11:56:21;;;;;;;;;;;;;;;21.83;28.78;96628.69;4962091;29;660;-72
2021/01/26 11:58:47;;;;;;;;;;;;;;;21.85;28.58;96620.50;4961698;29;655;-72
2021/01/26 12:01:13;;;;;;;;;;;;;;;21.56;28.85;96626.00;4961932;29;655;-71
2021/01/26 12:03:38;;;;;;;;;;;;;;;21.24;28.97;96628.28;4961628;29;990;-71
2021/01/26 12:06:04;;;;;;;;;;;;;;;21.54;28.86;96629.28;4944710;29;1964;-71
2021/01/26 12:08:29;;;;;;;;;;;;;;;22.07;28.44;96636.41;4961516;29;830;-73
2021/01/26 12:10:54;;;;;;;;;;;;;;;22.14;28.04;96638.16;4961523;29;696;-71
2021/01/26 12:13:20;;;;;;;;;;;;;;;22.11;28.18;96631.41;4961860;29;695;-71
2021/01/26 12:15:45;;;;;;;;;;;;;;;21.92;28.32;96641.25;4962007;29;633;-71
2021/01/26 12:18:11;;;;;;;;;;;;;;;21.49;28.92;96637.66;4961093;29;1081;-72
2021/01/26 12:20:37;;;;;;;;;;;;;;;21.35;28.97;96643.97;4962118;28;1178;-72
2021/01/26 12:23:02;;;;;;;;;;;;;;;21.50;29.44;96644.88;4980751;28;890;-73
2021/01/26 12:25:28;;;;;;;;;;;;;;;21.75;28.91;96650.13;4981355;28;595;-71
2021/01/26 12:27:54;;;;;;;;;;;;;;;22.02;28.49;96651.25;4982710;28;1906;-73
2021/01/26 12:30:22;;;;;;;;;;;;;;;22.26;28.08;96646.41;4984682;28;868;-71
2021/01/26 12:32:47;;;;;;;;;;;;;;;21.72;28.55;96639.78;4984443;28;940;-71
2021/01/26 12:35:20;;;;;;;;;;;;;;;21.32;29.14;96634.41;4985205;28;903;-73
2021/01/26 12:37:45;;;;;;;;;;;;;;;21.28;29.25;96637.38;4984738;28;656;-71
2021/01/26 12:40:11;;;;;;;;;;;;;;;21.70;28.83;96636.63;4984600;28;840;-72
2021/01/26 12:42:37;;;;;;;;;;;;;;;21.92;28.41;96644.09;4984709;28;682;-71
2021/01/26 12:45:03;;;;;;;;;;;;;;;21.73;28.82;96647.00;4984585;28;671;-70
2021/01/26 12:47:29;;;;;;;;;;;;;;;21.89;28.70;96645.03;4984187;28;1898;-71
2021/01/26 12:49:54;;;;;;;;;;;;;;;21.79;28.50;96650.75;4984325;28;881;-70
2021/01/26 12:52:19;;;;;;;;;;;;;;;21.26;29.46;96665.34;4984401;28;887;-71
2021/01/26 12:54:45;;;;;;;;;;;;;;;21.41;28.98;96659.06;4984289;28;671;-72
2021/01/26 12:57:10;;;;;;;;;;;;;;;21.77;28.67;96655.31;4984422;28;679;-71
2021/01/26 12:59:36;;;;;;;;;;;;;;;21.94;28.41;96661.38;4984634;28;670;-70
2021/01/26 13:02:01;;;;;;;;;;;;;;;21.90;28.39;96677.75;4984164;28;961;-71
2021/01/26 13:04:27;;;;;;;;;;;;;;;21.87;28.23;96682.34;4967675;28;847;-71
2021/01/26 13:06:52;;;;;;;;;;;;;;;21.61;28.57;96679.13;4975015;28;1961;-73
2021/01/26 13:09:18;;;;;;;;;;;;;;;21.19;29.06;96668.53;4965096;29;616;-72
2021/01/26 13:11:43;;;;;;;;;;;;;;;21.20;29.48;96674.97;4964630;29;604;-73
2021/01/26 13:14:09;;;;;;;;;;;;;;;21.64;28.98;96683.81;4965072;29;603;-73
2021/01/26 13:16:34;;;;;;;;;;;;;;;22.54;27.34;96683.09;4964484;29;1080;-73